Time;durP1;ratioP1;P1;durP2;ratioP2;P2;SDS_P1;SDS_P2;PMS_P1;PMS_P2;Temp;Humidity;BMP_temperature;BMP_pressure;BME280_temperature;BME280_humidity;BME280_pressure;Samples;Min_cycle;Max_cycle;Signal;HPM_P1;HPM_P2
2021/07/02 05:16:14;;;;;;;16.45;6.32;;;16.30;98.80;;;;;;5195176;23;20045;-83
2021/07/02 05:22:02;;;;;;;16.48;6.53;;;16.40;98.70;;;;;;4879772;29;20057;-83
2021/07/02 05:24:27;;;;;;;14.85;6.05;;;16.40;98.90;;;;;;4880845;29;20041;-81
2021/07/02 05:26:53;;;;;;;16.77;6.25;;;16.50;98.70;;;;;;4881937;29;20029;-81
2021/07/02 05:29:19;;;;;;;14.15;6.38;;;16.40;98.60;;;;;;4881328;29;20061;-81
2021/07/02 05:31:44;;;;;;;16.50;6.63;;;16.40;98.60;;;;;;4881365;29;20021;-82
2021/07/02 05:34:11;;;;;;;13.02;5.55;;;16.40;98.50;;;;;;4881299;29;20402;-82
2021/07/02 05:36:37;;;;;;;12.70;5.68;;;16.40;98.60;;;;;;4880463;29;20052;-82
2021/07/02 05:39:02;;;;;;;19.35;6.78;;;16.40;98.70;;;;;;4881333;29;20025;-81
2021/07/02 05:41:28;;;;;;;16.52;6.55;;;16.50;98.60;;;;;;4881317;29;20758;-82
2021/07/02 05:43:54;;;;;;;15.02;5.93;;;16.50;98.60;;;;;;4881161;29;20039;-82
2021/07/02 05:46:20;;;;;;;13.30;5.97;;;16.50;98.70;;;;;;4881330;29;20039;-83
2021/07/02 05:48:48;;;;;;;13.43;6.28;;;16.60;98.80;;;;;;4881021;29;20052;-83
2021/07/02 05:51:14;;;;;;;13.40;6.00;;;16.60;98.80;;;;;;4878207;29;20117;-86
2021/07/02 05:53:40;;;;;;;15.23;6.07;;;16.70;98.80;;;;;;4879914;29;20104;-88
2021/07/02 05:56:06;;;;;;;15.02;6.80;;;16.80;98.80;;;;;;4864357;29;20385;-87
2021/07/02 05:58:31;;;;;;;14.52;5.93;;;16.90;98.80;;;;;;4879495;29;20033;-84
2021/07/02 06:00:57;;;;;;;17.80;7.47;;;17.00;98.80;;;;;;4879831;29;20115;-85
2021/07/02 06:03:23;;;;;;;18.80;6.70;;;17.00;98.70;;;;;;4878100;29;20032;-83
2021/07/02 06:05:49;;;;;;;14.32;7.07;;;17.10;98.70;;;;;;4879884;29;20025;-85
2021/07/02 06:08:15;;;;;;;15.82;6.68;;;17.10;98.60;;;;;;4880643;29;20509;-85
2021/07/02 06:10:41;;;;;;;20.83;6.80;;;17.10;98.70;;;;;;4879849;29;20057;-84
2021/07/02 06:13:07;;;;;;;16.42;6.50;;;17.10;98.50;;;;;;4879567;29;20017;-85
2021/07/02 06:15:33;;;;;;;13.80;6.10;;;17.10;98.40;;;;;;4880446;29;20068;-84
2021/07/02 06:18:06;;;;;;;14.15;6.60;;;17.00;98.30;;;;;;4879440;29;20035;-82
2021/07/02 06:20:32;;;;;;;17.85;6.60;;;17.00;98.30;;;;;;4875472;29;20025;-84
2021/07/02 06:22:58;;;;;;;14.20;5.47;;;16.90;98.30;;;;;;4882099;29;20450;-85
2021/07/02 06:25:24;;;;;;;16.85;6.22;;;17.00;98.70;;;;;;4881209;29;20029;-82
2021/07/02 06:27:49;;;;;;;17.13;7.03;;;17.10;98.70;;;;;;4879691;29;20398;-83
2021/07/02 06:30:16;;;;;;;14.30;6.15;;;17.10;98.70;;;;;;4879505;29;20085;-82
2021/07/02 06:32:42;;;;;;;17.95;7.75;;;17.10;98.70;;;;;;4879370;29;20028;-82
2021/07/02 06:35:08;;;;;;;15.82;6.53;;;17.20;98.60;;;;;;4880448;29;20021;-82
2021/07/02 06:37:34;;;;;;;14.45;6.22;;;17.20;98.70;;;;;;4880093;29;20065;-82
2021/07/02 06:39:59;;;;;;;12.23;5.90;;;17.40;98.80;;;;;;4879831;29;20112;-84
2021/07/02 06:42:25;;;;;;;14.80;6.10;;;17.40;98.80;;;;;;4879091;29;20113;-82
2021/07/02 06:44:51;;;;;;;13.23;6.20;;;17.60;98.90;;;;;;4879585;29;20419;-82
2021/07/02 06:47:17;;;;;;;13.60;6.15;;;17.60;98.70;;;;;;4879866;29;20025;-81
2021/07/02 06:49:43;;;;;;;12.23;5.80;;;17.60;98.80;;;;;;4880564;29;20048;-81
2021/07/02 06:52:08;;;;;;;15.38;6.50;;;17.80;98.90;;;;;;4878205;29;20040;-81
2021/07/02 06:54:34;;;;;;;12.25;5.82;;;17.90;98.80;;;;;;4877316;29;20029;-81
2021/07/02 06:57:00;;;;;;;13.60;6.15;;;18.10;99.00;;;;;;4879480;29;20029;-81
2021/07/02 06:59:27;;;;;;;15.48;6.75;;;18.20;98.90;;;;;;4878756;29;20359;-81
2021/07/02 07:01:57;;;;;;;18.75;7.18;;;18.30;98.90;;;;;;4878878;29;20033;-81
2021/07/02 07:04:22;;;;;;;18.20;7.22;;;18.30;98.50;;;;;;4878573;29;20029;-81
2021/07/02 07:06:48;;;;;;;22.17;9.25;;;18.30;98.50;;;;;;4879448;29;20073;-81
2021/07/02 07:09:14;;;;;;;13.75;6.25;;;18.50;98.60;;;;;;4879646;29;20060;-81
2021/07/02 07:11:39;;;;;;;13.55;6.20;;;18.40;98.50;;;;;;4879602;29;20073;-82
2021/07/02 07:14:05;;;;;;;13.60;6.38;;;18.50;98.50;;;;;;4879413;29;20104;-81
2021/07/02 07:16:30;;;;;;;28.23;9.82;;;18.50;98.50;;;;;;4879324;29;20085;-81
2021/07/02 07:18:56;;;;;;;20.17;8.00;;;18.50;98.30;;;;;;4879209;29;20028;-82
2021/07/02 07:21:21;;;;;;;24.27;8.35;;;18.50;98.20;;;;;;4878378;29;20025;-82
2021/07/02 07:23:47;;;;;;;14.98;6.93;;;18.50;98.30;;;;;;4879381;29;20075;-82
2021/07/02 07:26:13;;;;;;;24.27;8.77;;;18.50;98.40;;;;;;4879430;29;20120;-82
2021/07/02 07:28:38;;;;;;;16.70;7.35;;;18.60;98.30;;;;;;4878318;29;20089;-81
2021/07/02 07:31:05;;;;;;;16.98;7.47;;;18.60;98.50;;;;;;4877789;29;20032;-81
2021/07/02 07:33:32;;;;;;;11.95;6.10;;;18.70;98.60;;;;;;4879274;29;20120;-82
2021/07/02 07:35:58;;;;;;;12.02;5.80;;;18.80;98.80;;;;;;4879173;29;20028;-82
2021/07/02 07:38:24;;;;;;;13.23;5.90;;;19.10;99.10;;;;;;4877874;29;20025;-82
2021/07/02 07:40:50;;;;;;;14.23;5.63;;;19.30;99.20;;;;;;4878182;29;20068;-81
2021/07/02 07:43:18;;;;;;;28.08;8.40;;;19.60;99.00;;;;;;4878051;29;20041;-81
2021/07/02 07:45:43;;;;;;;29.10;9.25;;;19.50;98.20;;;;;;4877751;29;20021;-81
2021/07/02 07:48:09;;;;;;;16.90;6.60;;;19.40;98.10;;;;;;4877699;29;20036;-81
2021/07/02 07:50:42;;;;;;;15.38;6.50;;;19.60;98.40;;;;;;4879166;29;20056;-82
2021/07/02 07:53:10;;;;;;;26.42;8.18;;;19.60;98.40;;;;;;4877173;29;20070;-82
2021/07/02 07:55:35;;;;;;;25.73;8.63;;;19.60;98.10;;;;;;4878957;29;20032;-81
2021/07/02 07:58:01;;;;;;;15.30;6.57;;;19.50;98.00;;;;;;4878717;29;20390;-81
2021/07/02 08:00:27;;;;;;;12.85;5.95;;;19.50;98.20;;;;;;4878793;29;20064;-82
2021/07/02 08:02:52;;;;;;;25.35;8.77;;;19.60;98.30;;;;;;4877685;29;20036;-82
2021/07/02 08:05:18;;;;;;;24.80;8.18;;;19.60;98.00;;;;;;4878579;29;20148;-82
2021/07/02 08:07:45;;;;;;;15.32;7.18;;;19.50;97.70;;;;;;4879068;29;20141;-82
2021/07/02 08:10:13;;;;;;;16.33;7.47;;;19.40;97.90;;;;;;4878966;29;20048;-81
2021/07/02 08:12:40;;;;;;;19.65;7.63;;;19.40;98.20;;;;;;4878984;29;20363;-82
2021/07/02 08:15:08;;;;;;;15.18;7.25;;;19.40;98.00;;;;;;4878661;29;20033;-82
2021/07/02 08:17:35;;;;;;;11.00;5.75;;;19.40;98.30;;;;;;4877273;29;20482;-82
2021/07/02 08:20:01;;;;;;;16.05;6.47;;;19.60;98.50;;;;;;4875090;29;20029;-82
2021/07/02 08:22:27;;;;;;;15.35;7.18;;;19.60;98.40;;;;;;4878584;29;20055;-81
2021/07/02 08:24:54;;;;;;;11.73;6.72;;;19.60;98.00;;;;;;4878521;29;20025;-81
2021/07/02 08:27:21;;;;;;;13.98;6.88;;;19.50;98.30;;;;;;4878522;29;20029;-82
2021/07/02 08:29:46;;;;;;;12.00;6.57;;;19.70;98.80;;;;;;4878658;29;20045;-81
2021/07/02 08:32:12;;;;;;;12.77;5.93;;;19.90;98.90;;;;;;4878559;29;20497;-82
2021/07/02 08:34:38;;;;;;;11.48;6.03;;;20.10;98.80;;;;;;4877327;29;20044;-82
2021/07/02 08:37:04;;;;;;;11.75;6.03;;;20.20;98.80;;;;;;4874790;29;20029;-82
2021/07/02 08:39:30;;;;;;;10.38;5.60;;;20.50;99.50;;;;;;4878658;29;20033;-82
2021/07/02 08:41:55;;;;;;;10.40;5.60;;;20.90;99.70;;;;;;4878728;29;20029;-82
2021/07/02 08:44:21;;;;;;;13.60;7.00;;;21.00;98.90;;;;;;4878460;29;20165;-81
2021/07/02 08:46:49;;;;;;;13.82;5.82;;;21.00;98.30;;;;;;4878326;29;20029;-82
2021/07/02 08:49:16;;;;;;;11.20;5.68;;;21.00;98.30;;;;;;4878637;29;20033;-81
2021/07/02 08:51:42;;;;;;;16.75;6.78;;;21.20;98.50;;;;;;4881193;29;20017;-81
2021/07/02 08:54:13;;;;;;;13.77;6.47;;;21.30;98.50;;;;;;4880519;29;20497;-82
2021/07/02 08:56:57;;;;;;;16.25;7.20;;;21.30;98.50;;;;;;4880779;29;20036;-82
2021/07/02 08:59:27;;;;;;;12.38;5.55;;;21.40;98.20;;;;;;4878476;29;20028;-82
2021/07/02 09:01:54;;;;;;;11.27;5.70;;;21.50;98.30;;;;;;4882353;29;20113;-82
2021/07/02 09:04:29;;;;;;;10.50;5.80;;;21.80;98.80;;;;;;4881079;29;20029;-82
2021/07/02 09:07:05;;;;;;;11.60;5.78;;;21.90;98.90;;;;;;4882233;29;20021;-82
2021/07/02 09:09:49;;;;;;;10.88;5.43;;;22.20;98.70;;;;;;4880209;29;20037;-82
2021/07/02 09:12:16;;;;;;;12.13;5.68;;;22.30;98.40;;;;;;4880874;29;20036;-81
2021/07/02 09:15:07;;;;;;;19.15;6.78;;;22.30;98.00;;;;;;4881959;29;20032;-82
2021/07/02 09:17:37;;;;;;;10.63;5.85;;;22.10;97.20;;;;;;4879199;29;20393;-82
2021/07/02 09:20:05;;;;;;;11.00;5.75;;;21.80;96.90;;;;;;4881652;29;20100;-82
2021/07/02 09:22:48;;;;;;;11.35;5.18;;;21.60;97.50;;;;;;4881222;29;20029;-82
2021/07/02 09:25:47;;;;;;;11.82;5.57;;;21.50;97.60;;;;;;4881828;29;20025;-82
2021/07/02 09:28:16;;;;;;;11.10;5.47;;;21.40;97.60;;;;;;4880850;29;20025;-82
2021/07/02 09:30:49;;;;;;;11.43;5.68;;;21.40;97.90;;;;;;4877934;29;20029;-82
2021/07/02 09:33:22;;;;;;;11.10;5.32;;;21.40;98.10;;;;;;4881382;29;20124;-82
2021/07/02 09:35:59;;;;;;;12.38;5.82;;;21.50;98.50;;;;;;4881188;29;20052;-82
2021/07/02 09:38:33;;;;;;;11.52;5.93;;;21.50;98.50;;;;;;4879426;29;20076;-82
2021/07/02 09:40:59;;;;;;;12.13;5.20;;;21.70;98.30;;;;;;4881472;29;20377;-82
2021/07/02 09:43:27;;;;;;;10.82;5.78;;;21.80;98.60;;;;;;4879729;29;20062;-82
2021/07/02 09:45:54;;;;;;;9.40;5.20;;;21.80;98.10;;;;;;4880351;29;20532;-83
2021/07/02 09:48:22;;;;;;;9.73;5.10;;;21.80;98.10;;;;;;4880973;29;20037;-82
2021/07/02 09:50:50;;;;;;;18.88;7.60;;;21.80;97.90;;;;;;4881194;29;20032;-82
2021/07/02 09:53:32;;;;;;;11.18;6.15;;;21.60;97.30;;;;;;4880107;29;20037;-82
2021/07/02 09:56:00;;;;;;;12.75;6.65;;;21.40;97.30;;;;;;4879461;29;20399;-82
2021/07/02 09:58:38;;;;;;;17.55;8.43;;;21.20;97.80;;;;;;4880890;29;20549;-82
2021/07/02 10:01:05;;;;;;;26.70;9.77;;;21.30;98.00;;;;;;4879595;29;20021;-82
2021/07/02 10:03:36;;;;;;;12.63;6.43;;;21.40;97.90;;;;;;4880865;29;20029;-81
2021/07/02 10:06:14;;;;;;;15.80;7.53;;;21.40;98.00;;;;;;4880618;29;20059;-82
2021/07/02 10:08:40;;;;;;;16.85;7.43;;;21.30;97.80;;;;;;4880684;29;20482;-82
2021/07/02 10:11:08;;;;;;;11.95;6.60;;;21.20;97.60;;;;;;4880635;29;20037;-82
2021/07/02 10:13:42;;;;;;;12.20;6.50;;;21.10;97.40;;;;;;4880697;29;20044;-82
2021/07/02 10:16:09;;;;;;;11.82;6.00;;;21.00;97.60;;;;;;4880180;29;20041;-81
2021/07/02 10:19:02;;;;;;;11.25;5.53;;;20.90;98.20;;;;;;4880473;29;20041;-84
2021/07/02 10:21:29;;;;;;;11.50;6.43;;;21.20;98.90;;;;;;4878239;29;20048;-83
2021/07/02 10:24:01;;;;;;;10.43;5.25;;;21.30;98.70;;;;;;4879147;29;20033;-83
2021/07/02 10:26:34;;;;;;;11.82;6.05;;;21.40;98.50;;;;;;4876400;29;20017;-83
2021/07/02 10:29:01;;;;;;;12.30;5.23;;;21.40;97.90;;;;;;4879917;29;20116;-82
2021/07/02 10:31:27;;;;;;;12.60;6.43;;;21.30;97.90;;;;;;4880192;29;20381;-81
2021/07/02 10:33:55;;;;;;;11.48;5.47;;;21.20;97.60;;;;;;4880322;29;20044;-81
2021/07/02 10:36:21;;;;;;;12.60;5.65;;;21.10;97.70;;;;;;4880117;29;20024;-81
2021/07/02 10:38:52;;;;;;;12.13;5.88;;;21.00;97.90;;;;;;4879266;29;20030;-81
2021/07/02 10:41:22;;;;;;;13.55;6.82;;;20.90;97.90;;;;;;4880133;29;20164;-81
2021/07/02 10:44:08;;;;;;;11.20;5.30;;;21.00;98.00;;;;;;4879854;29;20021;-84
2021/07/02 10:46:40;;;;;;;13.57;6.03;;;21.10;98.50;;;;;;4876414;29;20056;-83
2021/07/02 10:49:13;;;;;;;10.30;5.35;;;21.30;98.90;;;;;;4880260;29;20057;-84
2021/07/02 10:51:43;;;;;;;10.77;5.55;;;21.60;99.20;;;;;;4878732;29;20103;-84
2021/07/02 10:54:23;;;;;;;11.32;5.55;;;21.80;99.00;;;;;;4878612;29;20477;-84
2021/07/02 10:56:58;;;;;;;8.90;4.55;;;22.10;99.10;;;;;;4874798;29;20385;-84
2021/07/02 10:59:45;;;;;;;9.95;5.10;;;22.20;98.50;;;;;;4879844;29;20319;-83
2021/07/02 11:02:17;;;;;;;10.27;5.18;;;22.30;98.50;;;;;;4878855;29;20032;-85
2021/07/02 11:04:50;;;;;;;11.52;5.97;;;22.50;98.80;;;;;;4879987;29;20017;-84
2021/07/02 11:07:22;;;;;;;9.63;4.73;;;22.70;98.80;;;;;;4879556;29;20120;-84
2021/07/02 11:09:51;;;;;;;11.07;5.82;;;22.90;98.50;;;;;;4878686;29;20033;-84
2021/07/02 11:12:28;;;;;;;13.48;5.68;;;22.90;98.50;;;;;;4878356;29;20493;-84
2021/07/02 11:14:53;;;;;;;10.82;5.30;;;23.10;98.30;;;;;;4878879;29;20056;-84
2021/07/02 11:17:23;;;;;;;13.05;6.10;;;23.20;98.30;;;;;;4878316;29;20084;-84
2021/07/02 11:20:09;;;;;;;15.30;6.78;;;23.30;98.10;;;;;;4878507;29;20021;-88
2021/07/02 11:22:40;;;;;;;16.88;6.35;;;23.20;97.70;;;;;;4877775;29;20057;-85
2021/07/02 11:25:09;;;;;;;10.52;5.40;;;23.20;97.70;;;;;;4875436;29;20397;-85
2021/07/02 11:27:51;;;;;;;9.30;4.40;;;23.30;98.20;;;;;;4877337;29;20017;-85
2021/07/02 11:30:34;;;;;;;10.07;4.45;;;23.60;99.00;;;;;;4878072;29;20043;-85
2021/07/02 11:33:09;;;;;;;8.57;4.43;;;24.10;99.50;;;;;;4878325;29;20077;-85
2021/07/02 11:35:39;;;;;;;9.85;4.72;;;24.50;99.40;;;;;;4874612;29;20270;-85
2021/07/02 11:38:11;;;;;;;14.35;5.07;;;24.70;98.70;;;;;;4877526;29;20017;-85
2021/07/02 11:40:39;;;;;;;9.38;5.00;;;24.70;97.70;;;;;;4878407;29;20037;-85
2021/07/02 11:43:06;;;;;;;10.40;4.57;;;24.60;97.50;;;;;;4879479;29;20028;-85
2021/07/02 11:46:05;;;;;;;9.30;5.05;;;24.50;97.80;;;;;;4879354;29;20067;-86
2021/07/02 11:48:33;;;;;;;13.07;6.15;;;24.60;97.80;;;;;;4876458;29;20037;-86
2021/07/02 11:51:04;;;;;;;9.88;4.90;;;24.50;97.60;;;;;;4878227;29;20025;-85
2021/07/02 11:53:38;;;;;;;9.48;5.00;;;24.50;97.80;;;;;;4878024;29;20072;-86
2021/07/02 11:56:05;;;;;;;8.90;4.45;;;24.40;97.50;;;;;;4877533;29;20029;-86
2021/07/02 11:58:42;;;;;;;10.70;4.78;;;24.50;98.10;;;;;;4879484;29;20029;-85
2021/07/02 12:01:10;;;;;;;9.75;4.85;;;24.70;98.40;;;;;;4878565;29;20500;-83
2021/07/02 12:03:42;;;;;;;9.48;4.25;;;24.70;97.80;;;;;;4879015;29;20033;-84
2021/07/02 12:06:08;;;;;;;9.38;4.45;;;24.80;97.90;;;;;;4877869;29;20053;-84
2021/07/02 12:08:34;;;;;;;13.07;5.43;;;24.90;98.20;;;;;;4878868;29;20025;-84
2021/07/02 12:11:07;;;;;;;8.73;4.32;;;24.90;97.70;;;;;;4878623;29;20083;-84
2021/07/02 12:13:34;;;;;;;8.20;4.07;;;25.00;98.40;;;;;;4878646;29;20022;-85
2021/07/02 12:16:11;;;;;;;8.82;4.40;;;25.20;98.30;;;;;;4878441;29;20049;-85
2021/07/02 12:18:39;;;;;;;9.00;4.38;;;25.20;97.90;;;;;;4878574;29;20040;-86
2021/07/02 12:21:11;;;;;;;18.88;6.97;;;25.30;98.00;;;;;;4877630;29;20021;-85
2021/07/02 12:23:43;;;;;;;14.80;8.07;;;25.40;97.80;;;;;;4879341;29;20029;-86
2021/07/02 12:26:12;;;;;;;11.88;5.35;;;25.30;97.10;;;;;;4881716;29;20473;-86
2021/07/02 12:28:59;;;;;;;9.00;4.07;;;25.20;97.10;;;;;;4882572;29;20037;-85
2021/07/02 12:31:38;;;;;;;8.65;4.00;;;25.10;97.60;;;;;;4878107;29;20289;-85
2021/07/02 12:34:07;;;;;;;10.82;5.03;;;25.00;97.30;;;;;;4881771;29;20549;-85
2021/07/02 12:36:34;;;;;;;16.45;5.47;;;24.90;97.20;;;;;;4881242;29;20032;-86
2021/07/02 12:39:07;;;;;;;13.80;7.85;;;24.80;97.00;;;;;;4877107;29;20073;-86
2021/07/02 12:41:38;;;;;;;10.68;4.50;;;24.70;97.20;;;;;;4879460;29;20025;-85
2021/07/02 12:44:05;;;;;;;13.25;7.13;;;24.50;97.10;;;;;;4881170;29;20021;-87
2021/07/02 12:46:30;;;;;;;11.23;4.93;;;24.50;97.40;;;;;;4865530;29;20025;-84
2021/07/02 12:49:22;;;;;;;9.55;4.28;;;24.50;97.80;;;;;;4880560;29;20458;-84
2021/07/02 12:54:55;;;;;;;10.80;4.82;;;24.50;97.30;;;;;;4881856;29;20440;-86
2021/07/02 12:57:34;;;;;;;21.50;6.53;;;24.50;97.70;;;;;;4879821;29;20053;-85
2021/07/02 13:00:08;;;;;;;13.65;5.32;;;24.70;98.00;;;;;;4877150;29;20232;-85
2021/07/02 13:02:37;;;;;;;11.02;4.97;;;24.80;98.30;;;;;;4880665;29;20029;-86
2021/07/02 13:05:11;;;;;;;8.07;4.03;;;25.00;97.90;;;;;;4880622;29;20487;-85
2021/07/02 13:07:49;;;;;;;10.13;4.60;;;25.10;98.20;;;;;;4879736;29;20025;-84
2021/07/02 13:10:21;;;;;;;9.88;4.07;;;25.50;98.90;;;;;;4881828;29;20550;-83
2021/07/02 13:13:07;;;;;;;9.13;4.47;;;26.10;99.60;;;;;;4882014;29;20410;-83
2021/07/02 13:15:36;;;;;;;10.02;4.57;;;26.60;99.20;;;;;;4880381;29;20120;-83
2021/07/02 13:18:02;;;;;;;11.35;5.95;;;26.80;98.60;;;;;;4881801;29;20025;-84
2021/07/02 13:20:49;;;;;;;9.30;5.40;;;27.20;98.90;;;;;;4879260;29;20120;-83
2021/07/02 13:23:19;;;;;;;10.55;4.55;;;27.60;98.60;;;;;;4881292;29;20029;-83
2021/07/02 13:26:09;;;;;;;8.07;4.22;;;28.00;98.80;;;;;;4880171;29;20386;-85
2021/07/02 13:28:44;;;;;;;8.93;3.97;;;28.30;98.30;;;;;;4880551;29;20045;-83
2021/07/02 13:31:28;;;;;;;8.38;4.00;;;28.20;96.90;;;;;;4877526;29;20081;-84
2021/07/02 13:34:12;;;;;;;8.82;4.25;;;28.00;96.80;;;;;;4880973;29;20107;-84
2021/07/02 13:36:57;;;;;;;8.95;3.88;;;27.90;97.10;;;;;;4880237;29;20031;-84
2021/07/02 13:39:25;;;;;;;9.00;3.95;;;27.80;96.40;;;;;;4881051;29;20041;-84
2021/07/02 13:42:04;;;;;;;8.98;3.80;;;27.60;96.40;;;;;;4882236;29;20435;-84
2021/07/02 13:44:34;;;;;;;8.00;3.70;;;27.30;96.00;;;;;;4877273;29;20057;-84
2021/07/02 13:47:15;;;;;;;9.40;4.00;;;27.00;96.00;;;;;;4879845;29;20067;-84
2021/07/02 13:49:42;;;;;;;9.20;4.18;;;26.70;96.10;;;;;;4881367;29;20029;-84
2021/07/02 13:52:10;;;;;;;9.52;4.50;;;26.70;97.00;;;;;;4880880;29;20343;-84
2021/07/02 13:54:36;;;;;;;10.23;4.40;;;26.80;97.50;;;;;;4880218;29;20033;-84
2021/07/02 13:57:03;;;;;;;7.22;3.40;;;27.70;99.90;;;;;;4881703;29;20032;-84
2021/07/02 13:59:29;;;;;;;8.00;3.63;;;29.20;99.90;;;;;;4879613;29;20036;-84
2021/07/02 14:01:56;;;;;;;8.23;4.18;;;29.00;98.80;;;;;;4880594;29;20100;-84
2021/07/02 14:04:23;;;;;;;7.95;3.50;;;28.80;96.60;;;;;;4881008;29;20120;-84
2021/07/02 14:06:48;;;;;;;8.50;4.00;;;28.50;96.00;;;;;;4880770;29;20025;-85
2021/07/02 14:09:16;;;;;;;8.15;3.45;;;28.10;95.60;;;;;;4880187;29;20037;-84
2021/07/02 14:11:44;;;;;;;11.43;4.15;;;27.60;95.70;;;;;;4879300;29;20041;-84
2021/07/02 14:14:10;;;;;;;8.70;3.97;;;27.30;95.70;;;;;;4879869;29;20033;-84
2021/07/02 14:16:36;;;;;;;8.15;3.75;;;27.00;96.30;;;;;;4879227;29;20106;-84
2021/07/02 14:19:04;;;;;;;8.32;4.03;;;26.90;96.90;;;;;;4880557;29;20366;-84
2021/07/02 14:21:30;;;;;;;8.63;3.60;;;28.00;99.90;;;;;;4881093;29;20032;-85
2021/07/02 14:23:57;;;;;;;7.18;3.78;;;32.20;99.90;;;;;;4881143;29;20041;-85
2021/07/02 14:26:23;;;;;;;6.85;3.47;;;35.50;99.90;;;;;;4880873;29;20052;-82
2021/07/02 14:28:49;;;;;;;7.65;3.50;;;38.10;99.90;;;;;;4878839;29;20470;-86
2021/07/02 14:31:15;;;;;;;7.50;3.08;;;39.80;99.90;;;;;;4880429;29;20025;-84
2021/07/02 14:33:40;;;;;;;6.32;3.25;;;40.30;99.90;;;;;;4879508;29;20480;-83
2021/07/02 14:36:06;;;;;;;4.68;2.65;;;41.30;99.90;;;;;;4878863;29;20532;-83
2021/07/02 14:38:32;;;;;;;5.78;3.15;;;42.30;99.90;;;;;;4880430;29;20061;-84
2021/07/02 14:40:58;;;;;;;6.55;2.95;;;43.00;99.90;;;;;;4864060;29;20135;-84
2021/07/02 14:43:24;;;;;;;4.90;3.00;;;43.90;99.90;;;;;;4879567;29;20028;-84
2021/07/02 14:45:51;;;;;;;5.93;2.88;;;44.40;99.90;;;;;;4880847;29;20433;-84
2021/07/02 14:48:17;;;;;;;6.10;3.10;;;45.30;99.90;;;;;;4878447;29;20535;-85
2021/07/02 14:50:43;;;;;;;5.30;2.90;;;45.40;94.80;;;;;;4878973;29;20025;-83
2021/07/02 14:53:09;;;;;;;7.47;3.25;;;45.40;95.20;;;;;;4879972;29;20061;-85
2021/07/02 14:55:36;;;;;;;6.82;3.45;;;45.50;95.30;;;;;;4879779;29;20028;-87
2021/07/02 14:58:04;;;;;;;5.38;2.80;;;45.40;95.50;;;;;;4876661;29;20108;-87
2021/07/02 15:00:30;;;;;;;6.47;3.17;;;46.10;96.90;;;;;;4879683;29;20029;-86
2021/07/02 15:02:56;;;;;;;7.45;3.17;;;47.10;96.00;;;;;;4880039;29;20029;-86
2021/07/02 15:05:22;;;;;;;6.10;2.70;;;47.30;95.00;;;;;;4877597;29;20393;-86
2021/07/02 15:07:48;;;;;;;4.43;3.05;;;48.10;95.60;;;;;;4880268;29;20108;-86
2021/07/02 15:10:14;;;;;;;5.50;2.90;;;48.70;95.40;;;;;;4879201;29;20017;-86
2021/07/02 15:12:39;;;;;;;4.55;2.80;;;49.20;95.50;;;;;;4880101;29;20112;-86
2021/07/02 15:15:06;;;;;;;5.68;2.83;;;48.50;91.00;;;;;;4878013;29;20028;-86
2021/07/02 15:17:32;;;;;;;5.55;2.83;;;48.20;91.90;;;;;;4878127;29;20036;-86
2021/07/02 15:19:57;;;;;;;7.65;2.83;;;46.70;86.20;;;;;;4879349;29;20081;-85
2021/07/02 15:22:23;;;;;;;5.00;2.80;;;44.20;81.20;;;;;;4878121;29;20029;-86
2021/07/02 15:24:49;;;;;;;8.18;2.90;;;41.80;83.40;;;;;;4878334;29;20036;-86
2021/07/02 15:27:16;;;;;;;7.18;3.40;;;40.00;87.10;;;;;;4879227;29;20028;-85
2021/07/02 15:30:19;;;;;;;6.13;2.90;;;38.30;87.60;;;;;;4879230;29;20036;-86
2021/07/02 15:32:45;;;;;;;6.13;3.00;;;36.70;90.50;;;;;;4877089;29;20048;-85
2021/07/02 15:35:11;;;;;;;8.77;2.90;;;35.50;91.60;;;;;;4879268;29;20462;-85
2021/07/02 15:37:37;;;;;;;8.52;3.47;;;34.70;92.60;;;;;;4878852;29;20466;-85
2021/07/02 15:40:03;;;;;;;6.82;3.17;;;35.10;99.10;;;;;;4879358;29;20029;-86
2021/07/02 15:42:29;;;;;;;7.68;3.20;;;37.50;99.90;;;;;;4879027;29;20105;-85
2021/07/02 15:44:54;;;;;;;6.45;3.13;;;39.40;99.90;;;;;;4879213;29;20118;-86
2021/07/02 15:47:20;;;;;;;6.57;3.10;;;39.00;96.10;;;;;;4879164;29;20077;-86
2021/07/02 15:49:46;;;;;;;6.68;2.97;;;38.50;93.10;;;;;;4878965;29;20040;-86
2021/07/02 15:52:11;;;;;;;5.43;3.00;;;38.70;98.00;;;;;;4879172;29;20025;-86
2021/07/02 15:54:37;;;;;;;6.90;3.15;;;40.20;99.90;;;;;;4879173;29;20025;-87
2021/07/02 15:57:04;;;;;;;6.50;2.78;;;41.80;99.90;;;;;;4862810;29;20029;-86
2021/07/02 15:59:29;;;;;;;5.50;2.80;;;42.70;98.10;;;;;;4877387;29;20482;-86
2021/07/02 16:01:55;;;;;;;5.93;2.70;;;42.00;92.50;;;;;;4863986;29;20032;-86
2021/07/02 16:04:22;;;;;;;5.60;2.78;;;40.60;90.20;;;;;;4885367;29;20033;-86
2021/07/02 16:06:48;;;;;;;5.28;2.70;;;39.20;90.20;;;;;;4886996;29;20021;-85
2021/07/02 16:09:15;;;;;;;6.78;3.30;;;37.60;88.50;;;;;;4886304;29;20418;-85
2021/07/02 16:11:43;;;;;;;6.82;3.10;;;36.20;90.60;;;;;;4870112;29;20053;-85
2021/07/02 16:14:08;;;;;;;4.15;2.50;;;35.10;92.20;;;;;;4883474;29;20032;-85
2021/07/02 16:16:34;;;;;;;4.55;2.67;;;35.20;95.30;;;;;;4885619;29;20049;-85
2021/07/02 16:18:59;;;;;;;5.95;3.00;;;34.70;93.50;;;;;;4886958;29;20073;-86
2021/07/02 16:21:25;;;;;;;4.90;2.65;;;34.20;93.40;;;;;;4886842;29;20096;-86
2021/07/02 16:23:50;;;;;;;6.32;2.97;;;33.50;93.30;;;;;;4886680;29;20518;-85
2021/07/02 16:26:16;;;;;;;6.55;3.10;;;32.70;93.20;;;;;;4883792;29;20061;-85
2021/07/02 16:28:42;;;;;;;6.63;3.25;;;32.10;93.80;;;;;;4884858;29;20025;-85
2021/07/02 16:31:08;;;;;;;7.57;3.33;;;32.60;99.90;;;;;;4885301;29;20077;-86
2021/07/02 16:33:35;;;;;;;6.95;3.22;;;34.70;99.90;;;;;;4867907;29;20498;-86
2021/07/02 16:36:02;;;;;;;5.55;2.90;;;34.80;99.90;;;;;;4894153;29;20104;-85
2021/07/02 16:38:28;;;;;;;7.60;3.10;;;34.20;94.30;;;;;;4871057;29;20039;-86
2021/07/02 16:40:54;;;;;;;7.10;3.42;;;33.30;93.10;;;;;;4886036;29;20112;-85
2021/07/02 16:43:20;;;;;;;6.47;3.10;;;32.80;96.40;;;;;;4883568;29;20056;-85
2021/07/02 16:45:46;;;;;;;6.18;2.92;;;34.10;99.90;;;;;;4886021;29;20398;-85
2021/07/02 16:48:12;;;;;;;6.30;2.95;;;34.90;99.90;;;;;;4886068;29;20021;-86
2021/07/02 16:50:42;;;;;;;6.63;3.03;;;35.60;99.90;;;;;;4886310;29;20036;-86
2021/07/02 16:53:07;;;;;;;6.25;2.88;;;36.50;99.90;;;;;;4885559;29;20025;-87
2021/07/02 16:55:33;;;;;;;6.03;2.90;;;37.30;99.90;;;;;;4885856;29;20039;-86
2021/07/02 16:57:59;;;;;;;6.85;2.97;;;38.20;99.90;;;;;;4884965;29;20021;-87
2021/07/02 17:00:30;;;;;;;7.03;3.28;;;38.60;98.00;;;;;;4887853;29;20037;-87
2021/07/02 17:02:59;;;;;;;6.05;3.05;;;39.00;98.00;;;;;;4872179;29;20029;-87
2021/07/02 17:05:26;;;;;;;5.57;2.65;;;39.30;97.00;;;;;;4887725;29;20029;-88
2021/07/02 17:07:51;;;;;;;6.63;2.83;;;39.40;96.40;;;;;;4885466;29;20112;-88
2021/07/02 17:10:17;;;;;;;5.15;2.60;;;39.30;95.30;;;;;;4885331;29;20029;-89
2021/07/02 17:12:43;;;;;;;7.32;3.38;;;39.20;95.60;;;;;;4874530;29;20040;-91
2021/07/02 17:15:09;;;;;;;6.07;3.10;;;38.80;93.80;;;;;;4871026;29;20025;-81
2021/07/02 17:17:35;;;;;;;6.82;3.30;;;38.20;94.00;;;;;;4901685;29;20068;-82
2021/07/02 17:20:02;;;;;;;7.20;2.97;;;37.30;92.50;;;;;;4887133;29;20072;-83
2021/07/02 17:22:28;;;;;;;7.95;3.33;;;36.50;92.50;;;;;;4885151;29;20035;-82
2021/07/02 17:24:54;;;;;;;5.85;2.83;;;35.80;92.40;;;;;;4879729;29;20033;-83
2021/07/02 17:27:20;;;;;;;4.78;2.60;;;35.20;93.00;;;;;;4882461;29;20378;-82
2021/07/02 17:29:46;;;;;;;5.32;3.03;;;34.70;93.20;;;;;;4881761;29;20040;-82
2021/07/02 17:32:12;;;;;;;5.60;2.83;;;33.90;92.90;;;;;;4882358;29;20025;-82
2021/07/02 17:34:38;;;;;;;6.63;3.00;;;33.50;94.20;;;;;;4882102;29;20507;-82
2021/07/02 17:37:04;;;;;;;5.82;2.88;;;33.20;94.40;;;;;;4882268;29;20105;-82
2021/07/02 17:39:30;;;;;;;6.57;3.10;;;32.80;94.40;;;;;;4882200;29;20040;-82
2021/07/02 17:41:56;;;;;;;5.90;2.80;;;32.60;94.60;;;;;;4881855;29;20037;-82
2021/07/02 17:44:21;;;;;;;4.80;2.60;;;32.20;94.10;;;;;;4882469;29;20490;-83
2021/07/02 17:46:47;;;;;;;5.18;2.65;;;32.00;95.00;;;;;;4865724;29;20553;-83
2021/07/02 17:49:14;;;;;;;4.45;2.42;;;31.80;94.90;;;;;;4865539;29;20394;-82
2021/07/02 17:51:40;;;;;;;5.38;2.63;;;31.60;95.10;;;;;;4881336;29;20082;-83
2021/07/02 17:54:06;;;;;;;5.32;2.63;;;31.40;95.50;;;;;;4881933;29;20021;-82
2021/07/02 17:56:32;;;;;;;6.32;2.80;;;31.30;95.20;;;;;;4880896;29;20056;-83
2021/07/02 17:59:01;;;;;;;5.90;3.10;;;30.90;94.40;;;;;;4865308;29;20408;-82
2021/07/02 18:01:27;;;;;;;6.25;3.10;;;30.30;93.80;;;;;;4880419;29;20060;-82
2021/07/02 18:03:53;;;;;;;11.25;3.10;;;29.80;93.70;;;;;;4881238;29;20036;-80
2021/07/02 18:06:19;;;;;;;5.90;2.80;;;29.10;93.70;;;;;;4880498;29;20025;-80
2021/07/02 18:08:46;;;;;;;6.80;3.20;;;28.70;94.40;;;;;;4881154;29;20025;-82
2021/07/02 18:11:14;;;;;;;6.53;2.80;;;28.30;94.50;;;;;;4864526;29;20021;-81